EJU614B LFML-LFBD
Flight info
| Callsign | EJU614B |
|---|---|
| Flight time | 0h 51m |
| Altitude | 34000 |
| Route | FJR DCT FISTO DCT MIRBA |
| Aircraft | A320/M-SDE2E3FGHIJ1RWXYZ/LB1 |
Departure
| Time | 2026-04-30 11:27 |
|---|---|
| Airport | Marseille Provence Airport (LFML) |
Arrival
| Time | 2026-04-30 12:19 |
|---|---|
| Airport | Bordeaux–Mérignac Airport (LFBD) |
| Time | Latitude | Longitude | Altitude | Speed | Heading |
|---|---|---|---|---|---|
| 2026-04-30 10:11 | 43.43864 | 5.22311 | 38 ft | 0 kts | 74° |
| 2026-04-30 11:17 | 43.43858 | 5.22281 | 37 ft | 4 kts | 77° |
| 2026-04-30 11:17 | 43.43853 | 5.22245 | 34 ft | 4 kts | 86° |
| 2026-04-30 11:17 | 43.43855 | 5.22209 | 34 ft | 4 kts | 122° |
| 2026-04-30 11:18 | 43.43863 | 5.22196 | 37 ft | 0 kts | 157° |
| 2026-04-30 11:20 | 43.43858 | 5.22199 | 37 ft | 3 kts | 157° |
| 2026-04-30 11:20 | 43.43835 | 5.22212 | 37 ft | 3 kts | 160° |
| 2026-04-30 11:21 | 43.43802 | 5.22226 | 36 ft | 7 kts | 163° |
| 2026-04-30 11:21 | 43.43757 | 5.22230 | 37 ft | 8 kts | 205° |
| 2026-04-30 11:21 | 43.43710 | 5.22166 | 37 ft | 10 kts | 224° |
| 2026-04-30 11:21 | 43.43699 | 5.22071 | 35 ft | 12 kts | 301° |
| 2026-04-30 11:22 | 43.43775 | 5.21996 | 37 ft | 15 kts | 320° |
| 2026-04-30 11:22 | 43.43852 | 5.21888 | 37 ft | 17 kts | 314° |
| 2026-04-30 11:22 | 43.43940 | 5.21762 | 37 ft | 19 kts | 314° |
| 2026-04-30 11:22 | 43.43986 | 5.21664 | 37 ft | 11 kts | 269° |
| 2026-04-30 11:23 | 43.43935 | 5.21577 | 37 ft | 12 kts | 223° |
| 2026-04-30 11:23 | 43.43936 | 5.21465 | 37 ft | 14 kts | 310° |
| 2026-04-30 11:23 | 43.44097 | 5.21237 | 37 ft | 19 kts | 314° |
| 2026-04-30 11:24 | 43.44193 | 5.21099 | 37 ft | 21 kts | 314° |
| 2026-04-30 11:24 | 43.44274 | 5.20973 | 37 ft | 17 kts | 304° |
| 2026-04-30 11:24 | 43.44336 | 5.20823 | 35 ft | 18 kts | 309° |
| 2026-04-30 11:25 | 43.44532 | 5.20548 | 37 ft | 22 kts | 314° |
| 2026-04-30 11:25 | 43.44636 | 5.20398 | 37 ft | 22 kts | 314° |
| 2026-04-30 11:25 | 43.44867 | 5.20070 | 37 ft | 23 kts | 314° |
| 2026-04-30 11:26 | 43.44964 | 5.19816 | 37 ft | 16 kts | 227° |
| 2026-04-30 11:26 | 43.44883 | 5.19780 | 35 ft | 12 kts | 145° |
| 2026-04-30 11:26 | 43.44744 | 5.19976 | 34 ft | 62 kts | 135° |
| 2026-04-30 11:27 | 43.44279 | 5.20636 | 36 ft | 127 kts | 134° |
| 2026-04-30 11:27 | 43.43543 | 5.21688 | 45 ft | 175 kts | 134° |
| 2026-04-30 11:27 | 43.42684 | 5.22896 | 674 ft | 176 kts | 142° |
| 2026-04-30 11:27 | 43.41684 | 5.23817 | 1471 ft | 174 kts | 149° |
| 2026-04-30 11:28 | 43.39371 | 5.25774 | 2567 ft | 214 kts | 145° |
| 2026-04-30 11:28 | 43.38117 | 5.26854 | 3515 ft | 213 kts | 146° |
| 2026-04-30 11:28 | 43.36860 | 5.27936 | 4438 ft | 212 kts | 146° |
| 2026-04-30 11:29 | 43.35583 | 5.28923 | 5414 ft | 217 kts | 159° |
| 2026-04-30 11:29 | 43.34072 | 5.28937 | 6195 ft | 227 kts | 198° |
| 2026-04-30 11:29 | 43.31630 | 5.25570 | 7127 ft | 274 kts | 234° |
| 2026-04-30 11:30 | 43.29528 | 5.21085 | 8821 ft | 283 kts | 236° |
| 2026-04-30 11:30 | 43.28466 | 5.18800 | 9726 ft | 285 kts | 236° |
| 2026-04-30 11:30 | 43.27372 | 5.16499 | 10457 ft | 294 kts | 235° |
| 2026-04-30 11:31 | 43.26191 | 5.14070 | 10729 ft | 317 kts | 235° |
| 2026-04-30 11:31 | 43.24927 | 5.11511 | 11267 ft | 328 kts | 235° |
| 2026-04-30 11:31 | 43.23634 | 5.08908 | 12025 ft | 332 kts | 235° |
| 2026-04-30 11:31 | 43.22382 | 5.06234 | 12812 ft | 335 kts | 242° |
| 2026-04-30 11:32 | 43.21616 | 5.03201 | 13562 ft | 340 kts | 258° |
| 2026-04-30 11:32 | 43.21517 | 4.99945 | 14260 ft | 346 kts | 275° |
| 2026-04-30 11:32 | 43.22106 | 4.96732 | 14914 ft | 351 kts | 288° |
| 2026-04-30 11:33 | 43.23775 | 4.90395 | 16259 ft | 357 kts | 288° |
| 2026-04-30 11:33 | 43.24615 | 4.87182 | 16916 ft | 360 kts | 288° |
| 2026-04-30 11:33 | 43.25461 | 4.83929 | 17562 ft | 363 kts | 288° |
| 2026-04-30 11:33 | 43.26310 | 4.80651 | 18200 ft | 366 kts | 288° |
| 2026-04-30 11:34 | 43.27168 | 4.77339 | 18768 ft | 370 kts | 288° |
| 2026-04-30 11:34 | 43.28035 | 4.74004 | 19303 ft | 373 kts | 290° |
| 2026-04-30 11:34 | 43.29167 | 4.70787 | 19835 ft | 377 kts | 297° |
| 2026-04-30 11:34 | 43.30440 | 4.67614 | 20376 ft | 380 kts | 297° |
| 2026-04-30 11:35 | 43.31722 | 4.64417 | 20907 ft | 383 kts | 297° |
| 2026-04-30 11:35 | 43.32575 | 4.62286 | 21247 ft | 385 kts | 297° |
| 2026-04-30 11:35 | 43.33868 | 4.59045 | 21759 ft | 388 kts | 297° |
| 2026-04-30 11:35 | 43.35166 | 4.55782 | 22269 ft | 391 kts | 297° |
| 2026-04-30 11:36 | 43.36473 | 4.52480 | 22775 ft | 394 kts | 297° |
| 2026-04-30 11:36 | 43.37786 | 4.49159 | 23278 ft | 397 kts | 297° |
| 2026-04-30 11:36 | 43.39107 | 4.45813 | 23756 ft | 400 kts | 297° |
| 2026-04-30 11:36 | 43.40431 | 4.42434 | 24160 ft | 402 kts | 297° |
| 2026-04-30 11:37 | 43.41758 | 4.39032 | 24566 ft | 405 kts | 296° |
| 2026-04-30 11:37 | 43.43089 | 4.35612 | 24976 ft | 407 kts | 296° |
| 2026-04-30 11:37 | 43.44429 | 4.32170 | 25381 ft | 409 kts | 296° |
| 2026-04-30 11:37 | 43.45776 | 4.28702 | 25777 ft | 412 kts | 296° |
| 2026-04-30 11:38 | 43.47127 | 4.25219 | 26177 ft | 414 kts | 296° |
| 2026-04-30 11:38 | 43.48486 | 4.21707 | 26565 ft | 416 kts | 296° |
| 2026-04-30 11:38 | 43.49847 | 4.18186 | 26960 ft | 418 kts | 296° |
| 2026-04-30 11:38 | 43.51218 | 4.14640 | 27345 ft | 421 kts | 296° |
| 2026-04-30 11:39 | 43.52600 | 4.11067 | 27726 ft | 423 kts | 296° |
| 2026-04-30 11:39 | 43.53989 | 4.07478 | 28103 ft | 425 kts | 296° |
| 2026-04-30 11:39 | 43.55380 | 4.03876 | 28473 ft | 427 kts | 296° |
| 2026-04-30 11:39 | 43.56777 | 4.00253 | 28844 ft | 429 kts | 296° |
| 2026-04-30 11:40 | 43.58172 | 3.96601 | 29209 ft | 431 kts | 295° |
| 2026-04-30 11:40 | 43.59505 | 3.92888 | 29576 ft | 433 kts | 294° |
| 2026-04-30 11:40 | 43.60785 | 3.89111 | 29925 ft | 435 kts | 292° |
| 2026-04-30 11:40 | 43.62032 | 3.85310 | 30261 ft | 436 kts | 292° |
| 2026-04-30 11:41 | 43.63279 | 3.81472 | 30540 ft | 438 kts | 292° |
| 2026-04-30 11:41 | 43.64533 | 3.77633 | 30816 ft | 440 kts | 292° |
| 2026-04-30 11:41 | 43.65805 | 3.73781 | 31098 ft | 441 kts | 293° |
| 2026-04-30 11:41 | 43.67093 | 3.69923 | 31385 ft | 443 kts | 293° |
| 2026-04-30 11:42 | 43.68390 | 3.66058 | 31692 ft | 444 kts | 293° |
| 2026-04-30 11:42 | 43.69688 | 3.62197 | 32093 ft | 442 kts | 293° |
| 2026-04-30 11:42 | 43.70979 | 3.58353 | 32501 ft | 440 kts | 293° |
| 2026-04-30 11:42 | 43.72261 | 3.54520 | 32911 ft | 439 kts | 292° |
| 2026-04-30 11:43 | 43.73536 | 3.50690 | 33269 ft | 438 kts | 292° |
| 2026-04-30 11:43 | 43.74787 | 3.46925 | 33545 ft | 436 kts | 292° |
| 2026-04-30 11:43 | 43.76051 | 3.43113 | 33822 ft | 435 kts | 292° |
| 2026-04-30 11:43 | 43.77309 | 3.39314 | 34079 ft | 434 kts | 292° |
| 2026-04-30 11:44 | 43.79791 | 3.31800 | 34167 ft | 423 kts | 292° |
| 2026-04-30 11:44 | 43.82225 | 3.24415 | 34167 ft | 420 kts | 292° |
| 2026-04-30 11:45 | 43.84641 | 3.17056 | 34167 ft | 419 kts | 292° |
| 2026-04-30 11:45 | 43.87050 | 3.09701 | 34164 ft | 419 kts | 291° |
| 2026-04-30 11:46 | 43.89456 | 3.02349 | 34158 ft | 419 kts | 291° |
| 2026-04-30 11:46 | 43.91844 | 2.95039 | 34151 ft | 419 kts | 291° |
| 2026-04-30 11:47 | 43.94235 | 2.87675 | 34131 ft | 419 kts | 291° |
| 2026-04-30 11:47 | 43.96623 | 2.80305 | 34126 ft | 419 kts | 291° |
| 2026-04-30 11:48 | 43.99012 | 2.72921 | 34141 ft | 419 kts | 291° |
| 2026-04-30 11:48 | 44.01399 | 2.65528 | 34132 ft | 419 kts | 291° |
| 2026-04-30 11:49 | 44.03778 | 2.58131 | 34134 ft | 419 kts | 291° |
| 2026-04-30 11:49 | 44.06131 | 2.50767 | 34120 ft | 420 kts | 291° |
| 2026-04-30 11:50 | 44.08505 | 2.43347 | 34122 ft | 420 kts | 291° |
| 2026-04-30 11:50 | 44.10876 | 2.35910 | 34125 ft | 421 kts | 291° |
| 2026-04-30 11:51 | 44.13242 | 2.28452 | 34117 ft | 421 kts | 291° |
| 2026-04-30 11:51 | 44.15613 | 2.20982 | 34119 ft | 422 kts | 291° |
| 2026-04-30 11:52 | 44.17988 | 2.13492 | 34108 ft | 422 kts | 291° |
| 2026-04-30 11:52 | 44.20352 | 2.05991 | 34104 ft | 423 kts | 291° |
| 2026-04-30 11:53 | 44.22716 | 1.98478 | 34102 ft | 423 kts | 291° |
| 2026-04-30 11:53 | 44.25075 | 1.90947 | 34099 ft | 424 kts | 291° |
| 2026-04-30 11:54 | 44.27424 | 1.83402 | 34097 ft | 424 kts | 291° |
| 2026-04-30 11:54 | 44.29783 | 1.75840 | 34097 ft | 425 kts | 291° |
| 2026-04-30 11:55 | 44.32142 | 1.68272 | 34108 ft | 425 kts | 291° |
| 2026-04-30 11:55 | 44.34478 | 1.60729 | 33855 ft | 426 kts | 291° |
| 2026-04-30 11:56 | 44.35647 | 1.56934 | 33589 ft | 424 kts | 291° |
| 2026-04-30 11:56 | 44.36812 | 1.53148 | 33316 ft | 424 kts | 291° |
| 2026-04-30 11:56 | 44.37971 | 1.49390 | 32915 ft | 419 kts | 291° |
| 2026-04-30 11:56 | 44.39123 | 1.45656 | 32386 ft | 417 kts | 291° |
| 2026-04-30 11:57 | 44.40267 | 1.41947 | 31868 ft | 414 kts | 291° |
| 2026-04-30 11:57 | 44.41402 | 1.38259 | 31362 ft | 412 kts | 291° |
| 2026-04-30 11:57 | 44.42526 | 1.34587 | 30842 ft | 410 kts | 291° |
| 2026-04-30 11:57 | 44.43641 | 1.30929 | 30352 ft | 408 kts | 291° |
| 2026-04-30 11:58 | 44.44750 | 1.27284 | 29799 ft | 406 kts | 291° |
| 2026-04-30 11:58 | 44.45864 | 1.23626 | 29314 ft | 401 kts | 291° |
| 2026-04-30 11:58 | 44.46939 | 1.20085 | 28845 ft | 398 kts | 291° |
| 2026-04-30 11:58 | 44.48004 | 1.16527 | 28384 ft | 394 kts | 291° |
| 2026-04-30 11:59 | 44.49048 | 1.13000 | 27925 ft | 390 kts | 290° |
| 2026-04-30 11:59 | 44.50074 | 1.09503 | 27482 ft | 386 kts | 290° |
| 2026-04-30 11:59 | 44.51089 | 1.06037 | 27052 ft | 383 kts | 290° |
| 2026-04-30 11:59 | 44.52099 | 1.02596 | 26634 ft | 380 kts | 290° |
| 2026-04-30 12:00 | 44.53098 | 0.99186 | 26217 ft | 377 kts | 290° |
| 2026-04-30 12:00 | 44.54092 | 0.95798 | 25780 ft | 375 kts | 290° |
| 2026-04-30 12:00 | 44.55084 | 0.92415 | 25341 ft | 373 kts | 290° |
| 2026-04-30 12:00 | 44.56069 | 0.89056 | 24903 ft | 372 kts | 290° |
| 2026-04-30 12:01 | 44.57049 | 0.85706 | 24441 ft | 371 kts | 290° |
| 2026-04-30 12:01 | 44.58026 | 0.82363 | 23991 ft | 371 kts | 290° |
| 2026-04-30 12:01 | 44.59003 | 0.79012 | 23486 ft | 371 kts | 290° |
| 2026-04-30 12:01 | 44.59975 | 0.75668 | 22985 ft | 369 kts | 290° |
| 2026-04-30 12:02 | 44.60945 | 0.72337 | 22514 ft | 368 kts | 290° |
| 2026-04-30 12:02 | 44.61911 | 0.69022 | 22061 ft | 366 kts | 290° |
| 2026-04-30 12:02 | 44.62872 | 0.65721 | 21604 ft | 365 kts | 289° |
| 2026-04-30 12:02 | 44.63832 | 0.62420 | 21136 ft | 364 kts | 289° |
| 2026-04-30 12:03 | 44.64784 | 0.59136 | 20692 ft | 363 kts | 289° |
| 2026-04-30 12:03 | 44.66672 | 0.52581 | 19793 ft | 361 kts | 289° |
| 2026-04-30 12:03 | 44.67615 | 0.49310 | 19343 ft | 360 kts | 289° |
| 2026-04-30 12:04 | 44.68555 | 0.46047 | 18907 ft | 360 kts | 289° |
| 2026-04-30 12:04 | 44.69492 | 0.42786 | 18463 ft | 360 kts | 289° |
| 2026-04-30 12:04 | 44.70432 | 0.39516 | 17974 ft | 361 kts | 289° |
| 2026-04-30 12:04 | 44.71441 | 0.36283 | 17534 ft | 361 kts | 296° |
| 2026-04-30 12:05 | 44.72900 | 0.33411 | 17096 ft | 363 kts | 310° |
| 2026-04-30 12:05 | 44.74825 | 0.31103 | 16606 ft | 366 kts | 325° |
| 2026-04-30 12:05 | 44.77076 | 0.29417 | 16126 ft | 366 kts | 332° |
| 2026-04-30 12:05 | 44.79364 | 0.27834 | 15637 ft | 366 kts | 332° |
| 2026-04-30 12:06 | 44.81620 | 0.26261 | 15147 ft | 366 kts | 332° |
| 2026-04-30 12:06 | 44.83920 | 0.24650 | 14722 ft | 364 kts | 332° |
| 2026-04-30 12:06 | 44.86173 | 0.23070 | 14214 ft | 357 kts | 332° |
| 2026-04-30 12:06 | 44.88309 | 0.21481 | 13684 ft | 345 kts | 325° |
| 2026-04-30 12:07 | 44.90154 | 0.19372 | 13164 ft | 331 kts | 310° |
| 2026-04-30 12:07 | 44.91454 | 0.16814 | 12651 ft | 322 kts | 294° |
| 2026-04-30 12:07 | 44.92201 | 0.13881 | 12371 ft | 312 kts | 278° |
| 2026-04-30 12:07 | 44.92387 | 0.10898 | 12065 ft | 300 kts | 264° |
| 2026-04-30 12:08 | 44.92113 | 0.08004 | 11442 ft | 295 kts | 258° |
| 2026-04-30 12:08 | 44.91788 | 0.05166 | 11000 ft | 295 kts | 261° |
| 2026-04-30 12:08 | 44.91897 | 0.02260 | 10565 ft | 296 kts | 278° |
| 2026-04-30 12:08 | 44.92282 | -0.00562 | 10080 ft | 289 kts | 278° |
| 2026-04-30 12:09 | 44.92662 | -0.03302 | 9642 ft | 279 kts | 279° |
| 2026-04-30 12:09 | 44.93034 | -0.05984 | 9252 ft | 278 kts | 279° |
| 2026-04-30 12:09 | 44.93402 | -0.08661 | 8863 ft | 278 kts | 279° |
| 2026-04-30 12:09 | 44.93754 | -0.11252 | 8477 ft | 278 kts | 279° |
| 2026-04-30 12:10 | 44.94107 | -0.13861 | 8093 ft | 278 kts | 279° |
| 2026-04-30 12:10 | 44.94468 | -0.16536 | 7685 ft | 278 kts | 279° |
| 2026-04-30 12:10 | 44.94831 | -0.19212 | 7272 ft | 278 kts | 279° |
| 2026-04-30 12:10 | 44.95193 | -0.21894 | 6851 ft | 278 kts | 279° |
| 2026-04-30 12:11 | 44.95555 | -0.24584 | 6423 ft | 279 kts | 279° |
| 2026-04-30 12:11 | 44.95917 | -0.27274 | 5967 ft | 279 kts | 279° |
| 2026-04-30 12:11 | 44.96278 | -0.29958 | 5542 ft | 279 kts | 279° |
| 2026-04-30 12:11 | 44.96641 | -0.32657 | 5036 ft | 278 kts | 279° |
| 2026-04-30 12:12 | 44.96995 | -0.35308 | 4552 ft | 271 kts | 279° |
| 2026-04-30 12:12 | 44.97279 | -0.37442 | 4193 ft | 266 kts | 279° |
| 2026-04-30 12:12 | 44.97613 | -0.39960 | 4009 ft | 252 kts | 278° |
| 2026-04-30 12:12 | 44.97927 | -0.42317 | 3942 ft | 237 kts | 278° |
| 2026-04-30 12:13 | 44.98223 | -0.44547 | 3854 ft | 226 kts | 278° |
| 2026-04-30 12:13 | 44.98448 | -0.46696 | 3756 ft | 216 kts | 267° |
| 2026-04-30 12:13 | 44.98215 | -0.48716 | 3662 ft | 204 kts | 247° |
| 2026-04-30 12:13 | 44.97537 | -0.50450 | 3380 ft | 203 kts | 227° |
| 2026-04-30 12:14 | 44.96556 | -0.51894 | 3085 ft | 204 kts | 224° |
| 2026-04-30 12:14 | 44.95590 | -0.53284 | 3016 ft | 190 kts | 224° |
| 2026-04-30 12:14 | 44.94707 | -0.54556 | 2998 ft | 172 kts | 224° |
| 2026-04-30 12:14 | 44.93894 | -0.55724 | 2886 ft | 163 kts | 224° |
| 2026-04-30 12:15 | 44.93113 | -0.56847 | 2718 ft | 158 kts | 224° |
| 2026-04-30 12:15 | 44.92357 | -0.57931 | 2503 ft | 151 kts | 224° |
| 2026-04-30 12:15 | 44.91642 | -0.58959 | 2348 ft | 142 kts | 224° |
| 2026-04-30 12:15 | 44.90961 | -0.59936 | 2140 ft | 138 kts | 224° |
| 2026-04-30 12:16 | 44.90292 | -0.60896 | 1966 ft | 136 kts | 224° |
| 2026-04-30 12:16 | 44.89630 | -0.61847 | 1778 ft | 136 kts | 224° |
| 2026-04-30 12:16 | 44.88968 | -0.62795 | 1596 ft | 136 kts | 224° |
| 2026-04-30 12:16 | 44.88305 | -0.63746 | 1415 ft | 136 kts | 225° |
| 2026-04-30 12:17 | 44.86994 | -0.65627 | 1030 ft | 134 kts | 223° |
| 2026-04-30 12:17 | 44.86346 | -0.66572 | 888 ft | 135 kts | 223° |
| 2026-04-30 12:17 | 44.85678 | -0.67512 | 703 ft | 135 kts | 224° |
| 2026-04-30 12:18 | 44.85018 | -0.68463 | 528 ft | 137 kts | 224° |
| 2026-04-30 12:18 | 44.84352 | -0.69407 | 326 ft | 135 kts | 224° |
| 2026-04-30 12:18 | 44.83915 | -0.70031 | 231 ft | 135 kts | 224° |
| 2026-04-30 12:18 | 44.83284 | -0.70927 | 160 ft | 112 kts | 226° |
| 2026-04-30 12:19 | 44.82868 | -0.71530 | 158 ft | 61 kts | 226° |
| 2026-04-30 12:19 | 44.82651 | -0.71837 | 162 ft | 28 kts | 224° |
| 2026-04-30 12:19 | 44.82561 | -0.71939 | 158 ft | 13 kts | 179° |
| 2026-04-30 12:19 | 44.82497 | -0.71839 | 156 ft | 15 kts | 126° |
| 2026-04-30 12:20 | 44.82443 | -0.71730 | 158 ft | 11 kts | 112° |
| 2026-04-30 12:20 | 44.82477 | -0.71636 | 160 ft | 13 kts | 43° |
| 2026-04-30 12:20 | 44.82551 | -0.71532 | 160 ft | 17 kts | 45° |
| 2026-04-30 12:20 | 44.82642 | -0.71402 | 159 ft | 20 kts | 45° |
| 2026-04-30 12:21 | 44.82752 | -0.71249 | 155 ft | 24 kts | 45° |
| 2026-04-30 12:21 | 44.82861 | -0.71095 | 156 ft | 17 kts | 47° |
| 2026-04-30 12:21 | 44.82926 | -0.70998 | 158 ft | 9 kts | 46° |
| 2026-04-30 12:21 | 44.82939 | -0.70920 | 159 ft | 11 kts | 105° |
| 2026-04-30 12:22 | 44.82913 | -0.70796 | 158 ft | 15 kts | 107° |
| 2026-04-30 12:22 | 44.82879 | -0.70641 | 158 ft | 18 kts | 107° |
| 2026-04-30 12:22 | 44.82856 | -0.70512 | 158 ft | 12 kts | 85° |
| 2026-04-30 12:22 | 44.82892 | -0.70429 | 158 ft | 8 kts | 73° |
| 2026-04-30 12:23 | 44.82880 | -0.70348 | 158 ft | 10 kts | 107° |
| 2026-04-30 12:23 | 44.82858 | -0.70245 | 159 ft | 12 kts | 106° |
| 2026-04-30 12:23 | 44.82831 | -0.70115 | 159 ft | 13 kts | 106° |
| 2026-04-30 12:23 | 44.82820 | -0.70057 | 159 ft | 2 kts | 97° |
| 2026-04-30 12:24 | 44.82840 | -0.70039 | 159 ft | 4 kts | 14° |
| 2026-04-30 12:24 | 44.82863 | -0.70031 | 159 ft | 3 kts | 15° |
| 2026-04-30 12:24 | 44.82872 | -0.70027 | 159 ft | 0 kts | 15° |